Tangata Manu — FU6420 — position and weather

sailwx.info

Track history (hours):
 
Tides and Currents Weather Stations Pressure Air Temp Water Temp Dewpoint Dewpoint Depression Visibility Wind Speed Wind Dir Waves Ship Positions

Tangata Manu

Last reported at 2017-Oct-31 16:08 UTC. Time now 2017-Nov-22 09:19 UTC.
Position N 47°21' W 003°09'.
Warning: this ship's position is 21 days out of date.

Length 13 m.

Type: Pleasure craft. MMSI: 227458660.

Date/timePositionNaut miles runAvg speedWind from/ knotsBaromVisibWave heightAir tempDewpointWater temp
2017-Oct-31 16:08N 47°21' W 003°09'0 1.7
2017-Oct-31 16:00N 47°21' W 003°09'4 7.6
2017-Oct-31 15:30N 47°24' W 003°07'4 7.9
2017-Oct-31 14:59N 47°23' W 003°01'2 0.4
2017-Oct-31 10:38N 47°23' W 002°58'0 3.3
2017-Oct-31 10:29N 47°23' W 002°59'2 3.9
2017-Oct-31 10:00N 47°22' W 003°01'3 5.8
2017-Oct-31 09:30N 47°25' W 003°03'2 4.8
2017-Oct-31 09:00N 47°24' W 003°06'3 6.4
2017-Oct-31 08:30N 47°21' W 003°09'0 0.0
2017-Oct-29 16:35N 47°21' W 003°09'1 4.3
2017-Oct-29 16:28N 47°21' W 003°08'4 8.6
2017-Oct-29 16:00N 47°25' W 003°06'4 7.1
2017-Oct-29 15:30N 47°28' W 003°04'2 3.6
2017-Oct-29 15:00N 47°29' W 003°06'0 0.4
2017-Oct-29 14:28N 47°29' W 003°06'0 0.0
2017-Oct-28 16:13N 47°29' W 003°06'0 1.6
2017-Oct-28 15:59N 47°29' W 003°06'2 4.9
2017-Oct-28 15:30N 47°31' W 003°03'2 4.1
2017-Oct-28 15:00N 47°29' W 003°02'2 4.3
2017-Oct-28 14:30N 47°27' W 003°03'3 5.2
2017-Oct-28 14:00N 47°24' W 003°05'2 3.9
2017-Oct-28 13:30N 47°23' W 003°07'1 1.7
2017-Oct-28 12:57N 47°22' W 003°08'1 1.4
2017-Oct-28 12:30N 47°22' W 003°08'  
Track history (hours):
 
Tides and Currents Weather Stations Pressure Air Temp Water Temp Dewpoint Dewpoint Depression Visibility Wind Speed Wind Dir Waves Ship Positions

Tangata Manu

Last reported at 2017-Oct-31 16:08 UTC. Time now 2017-Nov-22 09:19 UTC.
Position N 47°21' W 003°09'.
Warning: this ship's position is 21 days out of date.

Length 13 m.

Type: Pleasure craft. MMSI: 227458660.

Date/timePositionNaut miles runAvg speedWind from/ knotsBaromVisibWave heightAir tempDewpointWater temp
2017-Oct-31 16:08N 47°21' W 003°09'0 1.7
2017-Oct-31 16:00N 47°21' W 003°09'4 7.6
2017-Oct-31 15:30N 47°24' W 003°07'4 7.9
2017-Oct-31 14:59N 47°23' W 003°01'2 0.4
2017-Oct-31 10:38N 47°23' W 002°58'0 3.3
2017-Oct-31 10:29N 47°23' W 002°59'2 3.9
2017-Oct-31 10:00N 47°22' W 003°01'3 5.8
2017-Oct-31 09:30N 47°25' W 003°03'2 4.8
2017-Oct-31 09:00N 47°24' W 003°06'3 6.4
2017-Oct-31 08:30N 47°21' W 003°09'0 0.0
2017-Oct-29 16:35N 47°21' W 003°09'1 4.3
2017-Oct-29 16:28N 47°21' W 003°08'4 8.6
2017-Oct-29 16:00N 47°25' W 003°06'4 7.1
2017-Oct-29 15:30N 47°28' W 003°04'2 3.6
2017-Oct-29 15:00N 47°29' W 003°06'0 0.4
2017-Oct-29 14:28N 47°29' W 003°06'0 0.0
2017-Oct-28 16:13N 47°29' W 003°06'0 1.6
2017-Oct-28 15:59N 47°29' W 003°06'2 4.9
2017-Oct-28 15:30N 47°31' W 003°03'2 4.1
2017-Oct-28 15:00N 47°29' W 003°02'2 4.3
2017-Oct-28 14:30N 47°27' W 003°03'3 5.2
2017-Oct-28 14:00N 47°24' W 003°05'2 3.9
2017-Oct-28 13:30N 47°23' W 003°07'1 1.7
2017-Oct-28 12:57N 47°22' W 003°08'1 1.4
2017-Oct-28 12:30N 47°22' W 003°08'  

Dump ship's entire track history